createdAt,value
2023-02-18T00:00:00.665Z,12.6
2023-02-18T00:05:00.643Z,12.9
2023-02-18T00:10:00.726Z,16.9
2023-02-18T00:15:00.600Z,15.0
2023-02-18T00:20:00.648Z,14.0
2023-02-18T00:25:00.669Z,15.9
2023-02-18T00:30:00.901Z,15.6
2023-02-18T00:35:00.641Z,14.9
2023-02-18T00:40:00.664Z,15.8
2023-02-18T00:45:00.782Z,14.3
2023-02-18T00:50:00.619Z,12.9
2023-02-18T00:55:00.650Z,15.3
2023-02-18T01:00:00.686Z,14.2
2023-02-18T01:05:00.785Z,12.3
2023-02-18T01:10:00.650Z,18.1
2023-02-18T01:15:00.648Z,15.1
2023-02-18T01:20:00.669Z,14.5
2023-02-18T01:25:00.659Z,13.2
2023-02-18T01:30:00.830Z,15.4
2023-02-18T01:35:00.613Z,11.6
2023-02-18T01:40:00.624Z,19.0
2023-02-18T01:45:00.653Z,16.4
2023-02-18T01:50:00.639Z,18.1
2023-02-18T01:55:00.647Z,16.8
2023-02-18T02:00:00.625Z,15.0
2023-02-18T02:05:00.661Z,15.1
2023-02-18T02:10:00.668Z,14.8
2023-02-18T02:15:00.624Z,16.4
2023-02-18T02:20:00.630Z,14.3
2023-02-18T02:25:00.641Z,16.8
2023-02-18T02:30:00.727Z,19.3
2023-02-18T02:35:00.639Z,18.0
2023-02-18T02:40:00.661Z,16.8
2023-02-18T02:45:00.693Z,15.1
2023-02-18T02:50:00.640Z,15.7
2023-02-18T02:55:00.799Z,15.2
2023-02-18T03:00:00.691Z,15.7
2023-02-18T03:05:00.634Z,17.3
2023-02-18T03:10:00.668Z,17.9
2023-02-18T03:15:00.658Z,18.4
2023-02-18T03:20:00.632Z,11.3
2023-02-18T03:25:00.642Z,14.7
2023-02-18T03:30:00.727Z,12.8
2023-02-18T03:35:00.655Z,14.3
2023-02-18T03:40:00.648Z,17.5
2023-02-18T03:45:00.612Z,15.9
2023-02-18T03:50:00.683Z,15.0
2023-02-18T03:55:00.654Z,15.1
2023-02-18T04:00:00.625Z,15.1
2023-02-18T04:05:00.667Z,18.1
2023-02-18T04:10:00.649Z,16.1
2023-02-18T04:15:00.655Z,17.8
2023-02-18T04:20:00.685Z,12.9
2023-02-18T04:25:00.653Z,13.3
2023-02-18T04:30:00.725Z,15.2
2023-02-18T04:35:00.632Z,13.1
2023-02-18T04:40:00.664Z,14.7
2023-02-18T04:45:00.672Z,12.8
2023-02-18T04:50:00.629Z,15.5
2023-02-18T04:55:00.646Z,13.5
2023-02-18T05:00:00.686Z,16.2
2023-02-18T05:05:00.641Z,13.5
2023-02-18T05:10:00.697Z,11.0
2023-02-18T05:15:00.656Z,14.1
2023-02-18T05:20:00.637Z,13.3
2023-02-18T05:25:00.652Z,11.4
2023-02-18T05:30:00.813Z,11.2
2023-02-18T05:35:00.620Z,15.8
2023-02-18T05:40:00.650Z,11.8
2023-02-18T05:45:00.657Z,13.9
2023-02-18T05:50:00.638Z,11.5
2023-02-18T05:55:00.636Z,10.7
2023-02-18T06:00:00.686Z,10.8
2023-02-18T06:05:00.720Z,6.9
2023-02-18T06:10:00.624Z,5.1
2023-02-18T06:15:00.676Z,12.9
2023-02-18T06:20:00.627Z,13.5
2023-02-18T06:25:00.655Z,8.4
2023-02-18T06:30:00.768Z,11.6
2023-02-18T06:35:00.670Z,11.0
2023-02-18T06:40:00.673Z,10.4
2023-02-18T06:45:00.641Z,7.9
2023-02-18T06:50:00.658Z,9.7
2023-02-18T06:55:00.649Z,6.6
2023-02-18T07:00:00.609Z,6.7
2023-02-18T07:05:00.663Z,7.9
2023-02-18T07:10:00.624Z,9.6
2023-02-18T07:15:00.644Z,8.2
2023-02-18T07:20:00.644Z,9.4
2023-02-18T07:25:00.659Z,12.1
2023-02-18T07:30:00.788Z,10.6
2023-02-18T07:35:00.648Z,9.8
2023-02-18T07:40:00.721Z,7.1
2023-02-18T07:45:00.636Z,10.4
2023-02-18T07:50:00.670Z,8.0
2023-02-18T07:55:00.653Z,8.5
2023-02-18T08:00:00.605Z,11.5
2023-02-18T08:05:00.662Z,11.2
2023-02-18T08:10:00.618Z,6.8
2023-02-18T08:15:00.674Z,7.7
2023-02-18T08:20:00.629Z,9.6
2023-02-18T08:25:00.655Z,13.3
2023-02-18T08:30:00.796Z,10.0
2023-02-18T08:35:00.628Z,10.3
2023-02-18T08:40:00.627Z,8.0
2023-02-18T08:45:00.684Z,7.0
2023-02-18T08:50:00.636Z,7.5
2023-02-18T08:55:00.700Z,8.8
2023-02-18T09:00:00.634Z,8.4
2023-02-18T09:05:00.665Z,8.1
2023-02-18T09:10:00.651Z,6.2
2023-02-18T09:15:00.649Z,3.5
2023-02-18T09:20:00.672Z,5.7
2023-02-18T09:25:00.664Z,4.2
2023-02-18T09:30:00.729Z,3.6
2023-02-18T09:35:00.688Z,2.2
2023-02-18T09:40:00.630Z,4.3
2023-02-18T09:45:00.658Z,2.1
2023-02-18T09:50:00.681Z,1.9
2023-02-18T09:55:00.700Z,3.2
2023-02-18T10:00:00.657Z,3.8
2023-02-18T10:05:00.667Z,5.7
2023-02-18T10:10:00.677Z,4.5
2023-02-18T10:15:00.672Z,2.2
2023-02-18T10:20:03.754Z,3.2
2023-02-18T10:25:00.650Z,4.4
2023-02-18T10:30:00.690Z,3.8
2023-02-18T10:35:00.675Z,3.7
2023-02-18T10:40:05.640Z,6.3
2023-02-18T10:45:00.640Z,4.5
2023-02-18T10:50:00.635Z,3.7
2023-02-18T10:55:00.804Z,4.5
2023-02-18T11:00:00.664Z,4.0
2023-02-18T11:05:00.869Z,4.1
2023-02-18T11:10:00.619Z,5.4
2023-02-18T11:15:00.656Z,5.1
2023-02-18T11:20:00.652Z,2.8
2023-02-18T11:25:00.654Z,7.4
2023-02-18T11:30:00.731Z,5.2
2023-02-18T11:35:00.642Z,4.8
2023-02-18T11:40:00.630Z,1.5
2023-02-18T11:45:00.702Z,1.0
2023-02-18T11:50:00.640Z,0.8
2023-02-18T11:55:00.681Z,1.6
2023-02-18T12:00:00.634Z,1.5
2023-02-18T12:05:00.737Z,0.2
2023-02-18T12:10:00.669Z,2.7
2023-02-18T12:15:00.748Z,1.4
2023-02-18T12:20:00.781Z,2.4
2023-02-18T12:25:00.613Z,1.4
2023-02-18T12:30:00.761Z,0.9
2023-02-18T12:35:00.667Z,1.3
2023-02-18T12:40:00.673Z,2.1
2023-02-18T12:45:00.669Z,3.5
2023-02-18T12:50:00.682Z,6.7
2023-02-18T12:55:00.665Z,11.2
2023-02-18T13:00:00.667Z,10.4
2023-02-18T13:05:02.710Z,12.3
2023-02-18T13:10:00.686Z,15.2
2023-02-18T13:15:00.676Z,12.0
2023-02-18T13:20:00.643Z,12.4
2023-02-18T13:25:01.046Z,17.4
2023-02-18T13:30:00.713Z,14.3
2023-02-18T13:35:00.660Z,20.8
2023-02-18T13:40:00.651Z,13.5
2023-02-18T13:45:00.654Z,14.7
2023-02-18T13:50:00.648Z,17.0
2023-02-18T13:55:00.680Z,15.7
2023-02-18T14:00:00.615Z,17.3
2023-02-18T14:05:00.649Z,19.3
2023-02-18T14:10:00.612Z,14.5
2023-02-18T14:15:00.650Z,17.8
2023-02-18T14:20:00.690Z,15.2
2023-02-18T14:25:00.671Z,21.8
2023-02-18T14:30:00.743Z,20.1
2023-02-18T14:35:00.708Z,15.3
2023-02-18T14:40:00.747Z,21.7
2023-02-18T14:45:00.647Z,18.6
2023-02-18T14:50:00.685Z,17.8
2023-02-18T14:55:00.700Z,16.1
2023-02-18T15:00:00.662Z,15.3
2023-02-18T15:05:00.656Z,13.3
2023-02-18T15:10:00.681Z,12.5
2023-02-18T15:15:00.658Z,11.8
2023-02-18T15:20:00.688Z,10.8
2023-02-18T15:25:00.723Z,7.9
2023-02-18T15:30:00.689Z,5.7
2023-02-18T15:35:00.633Z,6.0
2023-02-18T15:40:00.662Z,9.2
2023-02-18T15:45:00.641Z,8.5
2023-02-18T15:50:00.657Z,4.7
2023-02-18T15:55:00.663Z,4.6
2023-02-18T16:00:00.761Z,5.9
2023-02-18T16:05:00.637Z,5.1
2023-02-18T16:10:00.681Z,6.4
2023-02-18T16:15:00.680Z,6.0
2023-02-18T16:20:06.044Z,5.9
2023-02-18T16:25:00.701Z,8.8
2023-02-18T16:30:00.731Z,3.4
2023-02-18T16:35:00.655Z,4.3
2023-02-18T16:40:00.626Z,6.5
2023-02-18T16:45:00.673Z,4.0
2023-02-18T16:50:00.660Z,6.2
2023-02-18T16:55:00.652Z,5.6
2023-02-18T17:00:00.687Z,7.3
2023-02-18T17:05:00.653Z,6.1
2023-02-18T17:10:00.658Z,6.4
2023-02-18T17:15:00.665Z,5.3
2023-02-18T17:20:00.662Z,3.1
2023-02-18T17:25:00.640Z,4.7
2023-02-18T17:30:00.726Z,3.9
2023-02-18T17:35:02.639Z,1.6
2023-02-18T17:40:00.672Z,5.0
2023-02-18T17:45:00.634Z,1.6
2023-02-18T17:50:00.630Z,5.6
2023-02-18T17:55:00.656Z,5.1
2023-02-18T18:00:00.657Z,6.6
2023-02-18T18:05:00.642Z,4.1
2023-02-18T18:10:00.627Z,5.0
2023-02-18T18:15:00.659Z,3.9
2023-02-18T18:20:00.628Z,3.1
2023-02-18T18:25:00.700Z,1.4
2023-02-18T18:30:00.858Z,5.4
2023-02-18T18:35:00.659Z,2.2
2023-02-18T18:40:00.689Z,6.7
2023-02-18T18:45:00.672Z,3.8
2023-02-18T18:50:00.741Z,5.2
2023-02-18T18:55:00.755Z,6.8
2023-02-18T19:00:00.692Z,5.2
2023-02-18T19:05:00.661Z,5.5
2023-02-18T19:10:00.666Z,3.6
2023-02-18T19:15:00.599Z,2.1
2023-02-18T19:30:00.864Z,1.8
2023-02-18T19:35:00.685Z,2.4
2023-02-18T19:40:00.768Z,4.8
2023-02-18T19:45:00.741Z,3.7
2023-02-18T19:50:02.722Z,4.9
2023-02-18T19:55:02.729Z,5.0
2023-02-18T20:00:00.666Z,5.1
2023-02-18T20:05:00.674Z,4.8
2023-02-18T20:10:00.741Z,4.2
2023-02-18T20:15:00.693Z,4.6
2023-02-18T20:20:00.711Z,2.3
2023-02-18T20:25:00.728Z,1.1
2023-02-18T20:30:00.957Z,2.7
2023-02-18T20:35:00.698Z,2.8
2023-02-18T20:40:00.705Z,2.9
2023-02-18T20:45:00.712Z,0.8
2023-02-18T20:50:00.806Z,3.7
2023-02-18T20:55:00.713Z,3.1
2023-02-18T21:00:02.719Z,2.8
2023-02-18T21:05:00.693Z,0.8
2023-02-18T21:10:00.742Z,4.5
2023-02-18T21:15:00.726Z,3.6
2023-02-18T21:20:00.794Z,4.4
2023-02-18T21:25:00.681Z,4.6
2023-02-18T21:30:00.829Z,3.8
2023-02-18T21:35:00.715Z,3.8
2023-02-18T21:40:00.691Z,3.2
2023-02-18T21:45:00.710Z,5.1
2023-02-18T21:50:00.796Z,4.9
2023-02-18T21:55:00.677Z,4.1
2023-02-18T22:00:19.484Z,3.6
2023-02-18T22:05:00.686Z,4.5
2023-02-18T22:10:00.714Z,2.8
2023-02-18T22:15:00.739Z,4.5
2023-02-18T22:20:00.689Z,5.1
2023-02-18T22:25:00.699Z,1.7
2023-02-18T22:30:00.796Z,1.8
2023-02-18T22:35:00.708Z,0.9
2023-02-18T22:40:00.730Z,1.3
2023-02-18T22:45:00.672Z,1.1
2023-02-18T22:50:00.728Z,1.2
2023-02-18T22:55:00.661Z,1.2
2023-02-18T23:00:00.695Z,0.6
2023-02-18T23:05:00.714Z,3.0
2023-02-18T23:10:00.683Z,0.7
2023-02-18T23:15:00.700Z,0.2
2023-02-18T23:20:00.712Z,2.6
2023-02-18T23:25:00.735Z,3.7
2023-02-18T23:30:00.776Z,3.1
2023-02-18T23:35:00.702Z,1.3
2023-02-18T23:40:00.678Z,3.5
2023-02-18T23:45:00.710Z,2.7
2023-02-18T23:50:00.876Z,3.0
2023-02-18T23:55:00.740Z,1.4
